Time;durP1;ratioP1;P1;durP2;ratioP2;P2;SDS_P1;SDS_P2;PMS_P1;PMS_P2;Temp;Humidity;BMP_temperature;BMP_pressure;BME280_temperature;BME280_humidity;BME280_pressure;Samples;Min_cycle;Max_cycle;Signal;HPM_P1;HPM_P2
2021/11/05 00:02:07;;;;;;;138.00;53.05;;;;;;;6.20;100.00;101214.56;4983738;28;20034;-79
2021/11/05 00:04:33;;;;;;;147.75;54.72;;;;;;;6.23;100.00;101215.16;4974718;28;20065;-79
2021/11/05 00:06:59;;;;;;;147.13;53.35;;;;;;;6.24;100.00;101215.97;4980142;28;20077;-79
2021/11/05 00:09:25;;;;;;;148.23;54.40;;;;;;;6.19;100.00;101218.88;4982112;28;20035;-79
2021/11/05 00:11:51;;;;;;;155.18;55.17;;;;;;;6.33;100.00;101227.31;4983853;28;20035;-78
2021/11/05 00:14:17;;;;;;;158.32;55.53;;;;;;;6.31;100.00;101232.59;4967847;28;20376;-79
2021/11/05 00:16:42;;;;;;;151.73;55.10;;;;;;;6.28;100.00;101237.97;4977349;28;20043;-77
2021/11/05 00:19:08;;;;;;;154.32;55.55;;;;;;;6.28;100.00;101239.75;4982686;28;20168;-79
2021/11/05 00:21:33;;;;;;;154.27;55.08;;;;;;;6.34;100.00;101244.41;4982462;28;20053;-79
2021/11/05 00:23:59;;;;;;;142.48;52.95;;;;;;;6.31;100.00;101245.47;4968244;28;20034;-80
2021/11/05 00:26:25;;;;;;;138.40;50.60;;;;;;;6.36;100.00;101247.69;4977290;28;20088;-78
2021/11/05 00:28:50;;;;;;;144.75;52.00;;;;;;;6.38;100.00;101254.34;4963104;28;20407;-78
2021/11/05 00:31:16;;;;;;;142.95;51.60;;;;;;;6.37;100.00;101249.34;4978165;28;20556;-77
2021/11/05 00:33:41;;;;;;;141.05;51.72;;;;;;;6.36;100.00;101258.81;4982566;28;20047;-78
2021/11/05 00:36:13;;;;;;;145.80;52.83;;;;;;;6.29;100.00;101260.25;4972859;28;20058;-78
2021/11/05 00:38:40;;;;;;;133.48;49.97;;;;;;;6.29;100.00;101264.53;4972406;28;20387;-78
2021/11/05 00:41:06;;;;;;;142.88;49.35;;;;;;;6.34;100.00;101268.41;5001365;22;20046;-71
2021/11/05 00:43:31;;;;;;;135.68;47.80;;;;;;;6.29;100.00;101273.13;4975880;28;20037;-70
2021/11/05 00:45:57;;;;;;;126.18;47.70;;;;;;;6.29;100.00;101274.84;4970485;28;20042;-70
2021/11/05 00:48:22;;;;;;;114.18;44.88;;;;;;;6.33;100.00;101274.50;4964095;28;20513;-71
2021/11/05 00:50:48;;;;;;;112.20;43.97;;;;;;;6.35;100.00;101275.22;4959311;28;20061;-70
2021/11/05 00:53:13;;;;;;;105.50;42.03;;;;;;;6.43;100.00;101284.94;4965396;28;20373;-70
2021/11/05 00:55:39;;;;;;;101.88;41.65;;;;;;;6.39;100.00;101279.19;4973703;23;20549;-76
2021/11/05 00:58:04;;;;;;;101.10;38.33;;;;;;;6.34;100.00;101281.28;4966360;28;20077;-77
2021/11/05 01:00:32;;;;;;;99.28;38.58;;;;;;;6.31;100.00;101288.44;4966645;28;20041;-75
2021/11/05 01:02:58;;;;;;;101.85;40.40;;;;;;;6.38;100.00;101282.69;4971223;28;20486;-76
2021/11/05 01:05:25;;;;;;;100.00;40.17;;;;;;;6.29;100.00;101285.16;4953344;28;20100;-77
2021/11/05 01:07:50;;;;;;;101.28;37.25;;;;;;;6.21;100.00;101286.53;4950963;28;20384;-77
2021/11/05 01:10:16;;;;;;;89.28;35.00;;;;;;;6.35;100.00;101287.28;4955218;28;20035;-77
2021/11/05 01:12:42;;;;;;;92.63;33.92;;;;;;;6.20;99.87;101294.41;4931317;29;20687;-77
2021/11/05 01:15:09;;;;;;;86.00;35.45;;;;;;;6.26;100.00;101299.09;4950779;28;20089;-76
2021/11/05 01:17:35;;;;;;;90.70;36.22;;;;;;;6.31;100.00;101306.47;4957197;28;20165;-77
2021/11/05 01:20:01;;;;;;;92.57;35.00;;;;;;;6.28;99.95;101311.84;4956850;28;20047;-78
2021/11/05 01:22:27;;;;;;;89.20;34.70;;;;;;;6.25;100.00;101315.47;4951215;28;20070;-76
2021/11/05 01:24:52;;;;;;;84.50;33.85;;;;;;;6.26;100.00;101321.47;4957521;28;20038;-80
2021/11/05 01:27:18;;;;;;;91.38;35.28;;;;;;;6.21;100.00;101317.44;4950299;28;20039;-76
2021/11/05 01:29:45;;;;;;;96.00;34.97;;;;;;;6.22;100.00;101320.88;4957551;28;20330;-77
2021/11/05 01:32:11;;;;;;;90.53;35.28;;;;;;;6.21;100.00;101324.38;4947621;28;20449;-76
2021/11/05 01:34:37;;;;;;;88.18;32.83;;;;;;;6.22;100.00;101326.81;4953723;28;20027;-77
2021/11/05 01:37:03;;;;;;;103.18;37.00;;;;;;;6.16;100.00;101335.03;4945932;28;20089;-77
2021/11/05 01:39:28;;;;;;;96.65;34.55;;;;;;;6.12;100.00;101340.50;4949682;28;20151;-80
2021/11/05 01:41:56;;;;;;;93.32;33.63;;;;;;;6.14;100.00;101341.19;4942451;28;20069;-77
2021/11/05 01:44:25;;;;;;;96.18;35.35;;;;;;;6.12;100.00;101332.78;4931323;28;20035;-77
2021/11/05 01:46:51;;;;;;;87.70;32.33;;;;;;;6.21;100.00;101340.63;4955360;28;20041;-76
2021/11/05 01:49:17;;;;;;;90.07;34.88;;;;;;;6.17;100.00;101338.41;4955828;28;20122;-77
2021/11/05 01:51:43;;;;;;;97.65;34.70;;;;;;;6.12;100.00;101341.34;4959071;28;20035;-77
2021/11/05 01:54:11;;;;;;;90.07;31.90;;;;;;;6.15;100.00;101348.00;4954151;28;20043;-75
2021/11/05 01:56:38;;;;;;;87.78;33.90;;;;;;;6.29;100.00;101352.13;4937810;28;20061;-76
2021/11/05 01:59:04;;;;;;;93.63;34.38;;;;;;;6.20;100.00;101353.66;4958396;28;20050;-79
2021/11/05 02:01:30;;;;;;;80.55;30.48;;;;;;;6.11;100.00;101357.72;4954575;28;20027;-77
2021/11/05 02:03:55;;;;;;;90.47;32.75;;;;;;;6.14;100.00;101352.34;4960541;28;20044;-76
2021/11/05 02:06:22;;;;;;;77.32;29.05;;;;;;;6.12;100.00;101354.22;4962426;28;20482;-76
2021/11/05 02:08:51;;;;;;;77.28;29.73;;;;;;;6.13;100.00;101352.44;4971658;28;20046;-76
2021/11/05 02:11:18;;;;;;;78.82;31.17;;;;;;;6.09;100.00;101353.63;4944735;28;20043;-76
2021/11/05 02:13:46;;;;;;;72.80;29.17;;;;;;;6.07;100.00;101358.06;4956794;28;20046;-78
2021/11/05 02:16:12;;;;;;;86.15;30.83;;;;;;;6.08;100.00;101360.50;4938590;28;20104;-77
2021/11/05 02:18:39;;;;;;;84.72;31.20;;;;;;;6.12;100.00;101379.13;4969544;28;20390;-77
2021/11/05 02:21:10;;;;;;;78.07;30.73;;;;;;;6.08;100.00;101368.22;4948842;28;20395;-78
2021/11/05 02:23:36;;;;;;;87.80;31.77;;;;;;;6.06;100.00;101374.44;4958220;28;20047;-78
2021/11/05 02:26:02;;;;;;;81.80;30.63;;;;;;;6.07;100.00;101381.22;4954097;28;20042;-76
2021/11/05 02:28:34;;;;;;;72.72;29.58;;;;;;;6.01;100.00;101391.03;4972628;28;20036;-77
2021/11/05 02:30:59;;;;;;;74.20;27.95;;;;;;;5.99;100.00;101387.75;4946474;28;20131;-77
2021/11/05 02:33:25;;;;;;;84.10;30.70;;;;;;;6.04;100.00;101397.72;4935557;28;20027;-77
2021/11/05 02:35:50;;;;;;;88.40;30.95;;;;;;;6.04;100.00;101402.84;4936131;28;20045;-76
2021/11/05 02:38:16;;;;;;;74.28;29.05;;;;;;;6.08;100.00;101412.00;4954875;28;20102;-77
2021/11/05 02:40:41;;;;;;;71.35;27.02;;;;;;;6.01;100.00;101413.41;4954135;28;20084;-77
2021/11/05 02:43:07;;;;;;;68.38;27.13;;;;;;;6.00;100.00;101407.41;4953163;28;20031;-77
2021/11/05 02:45:32;;;;;;;66.72;27.55;;;;;;;5.94;100.00;101415.56;4958534;28;20379;-77
2021/11/05 02:47:58;;;;;;;66.18;25.23;;;;;;;5.97;100.00;101417.94;4957443;28;20568;-77
2021/11/05 02:50:23;;;;;;;64.20;26.90;;;;;;;6.00;100.00;101417.69;4929899;28;20651;-77
2021/11/05 02:52:49;;;;;;;67.63;25.90;;;;;;;6.00;100.00;101417.69;4955151;28;20035;-77
2021/11/05 02:55:15;;;;;;;65.55;26.98;;;;;;;5.95;100.00;101419.81;4944453;28;20035;-77
2021/11/05 02:57:41;;;;;;;66.50;27.00;;;;;;;5.97;100.00;101415.38;4951007;28;20030;-77
2021/11/05 03:00:10;;;;;;;59.10;24.65;;;;;;;6.01;100.00;101421.94;4949836;28;20444;-77
2021/11/05 03:02:35;;;;;;;65.95;26.15;;;;;;;6.01;99.87;101426.28;4953680;28;20039;-76
2021/11/05 03:05:01;;;;;;;59.92;24.55;;;;;;;6.03;99.73;101429.56;4953302;28;20030;-77
2021/11/05 03:07:27;;;;;;;53.60;24.85;;;;;;;5.94;99.42;101438.72;4931413;29;20031;-78
2021/11/05 03:09:52;;;;;;;56.40;24.98;;;;;;;5.90;100.00;101434.72;4935701;28;20070;-76
2021/11/05 03:12:18;;;;;;;48.97;22.13;;;;;;;5.88;99.95;101440.91;4949575;28;20039;-77
2021/11/05 03:14:44;;;;;;;54.42;23.45;;;;;;;5.88;100.00;101446.03;4952260;28;20039;-76
2021/11/05 03:17:11;;;;;;;59.65;24.10;;;;;;;5.87;100.00;101447.81;4957143;28;20092;-77
2021/11/05 03:19:37;;;;;;;53.65;22.98;;;;;;;5.86;100.00;101443.59;4953932;28;20049;-76
2021/11/05 03:22:04;;;;;;;51.38;24.08;;;;;;;5.97;100.00;101448.84;4961154;28;20030;-76
2021/11/05 03:24:30;;;;;;;54.22;25.42;;;;;;;5.88;100.00;101451.19;4956460;28;20048;-77
2021/11/05 03:26:55;;;;;;;51.17;24.83;;;;;;;5.93;99.80;101459.41;4941629;28;20038;-77
2021/11/05 03:29:21;;;;;;;50.05;24.40;;;;;;;5.89;99.69;101461.38;4969087;28;20042;-78
2021/11/05 03:31:46;;;;;;;54.60;23.40;;;;;;;5.85;99.74;101476.22;4972952;28;20078;-76
2021/11/05 03:34:12;;;;;;;43.95;22.30;;;;;;;5.85;99.72;101473.66;4952650;28;20057;-77
2021/11/05 03:36:37;;;;;;;51.10;23.25;;;;;;;5.89;99.72;101471.69;4949267;28;20027;-76
2021/11/05 03:39:05;;;;;;;55.20;24.48;;;;;;;5.93;99.55;101478.25;4934341;28;20394;-76
2021/11/05 03:41:30;;;;;;;55.13;25.98;;;;;;;5.92;99.72;101492.06;4958015;28;20043;-77
2021/11/05 03:43:56;;;;;;;52.92;23.80;;;;;;;5.84;99.68;101489.22;4953208;28;20066;-76
2021/11/05 03:46:21;;;;;;;56.13;24.60;;;;;;;5.91;99.38;101490.41;4949976;28;20486;-77
2021/11/05 03:48:47;;;;;;;48.33;23.80;;;;;;;5.91;99.52;101490.41;4959065;28;20078;-77
2021/11/05 03:51:13;;;;;;;53.22;24.65;;;;;;;5.91;99.58;101495.56;4931686;29;20050;-77
2021/11/05 03:53:39;;;;;;;54.47;24.73;;;;;;;5.84;99.52;101502.91;4953091;28;20030;-77
2021/11/05 03:56:05;;;;;;;52.00;23.92;;;;;;;5.83;99.59;101508.16;4958975;28;20506;-76
2021/11/05 03:58:30;;;;;;;51.33;24.70;;;;;;;5.83;99.88;101508.97;4958836;28;20524;-77
2021/11/05 04:00:56;;;;;;;53.67;24.67;;;;;;;5.83;100.00;101516.69;4954582;28;20602;-78
2021/11/05 04:03:23;;;;;;;61.28;25.77;;;;;;;5.81;100.00;101508.25;4957625;28;20034;-77
2021/11/05 04:05:48;;;;;;;55.22;23.10;;;;;;;5.79;99.86;101523.00;4955598;28;20498;-77
2021/11/05 04:08:14;;;;;;;58.30;26.15;;;;;;;5.86;100.00;101531.13;4963916;28;20042;-77
2021/11/05 04:10:40;;;;;;;59.88;27.70;;;;;;;5.84;100.00;101527.84;4957451;28;20470;-77
2021/11/05 04:13:05;;;;;;;53.08;25.85;;;;;;;5.79;99.70;101530.72;4955168;28;20039;-76
2021/11/05 04:15:31;;;;;;;54.33;25.15;;;;;;;5.79;99.75;101535.88;4954431;28;20793;-77
2021/11/05 04:17:57;;;;;;;53.22;25.48;;;;;;;5.83;99.98;101545.00;4951229;28;20031;-77
2021/11/05 04:20:22;;;;;;;46.10;24.15;;;;;;;5.78;99.68;101552.25;4955691;28;20471;-77
2021/11/05 04:22:48;;;;;;;48.55;24.50;;;;;;;5.79;99.72;101556.44;4952630;28;20152;-77
2021/11/05 04:25:13;;;;;;;50.92;24.65;;;;;;;5.79;100.00;101560.78;4956844;28;20043;-76
2021/11/05 04:27:39;;;;;;;50.45;24.00;;;;;;;5.82;99.89;101560.56;4954495;28;20052;-76
2021/11/05 04:30:07;;;;;;;47.42;23.25;;;;;;;5.81;99.83;101564.06;4955423;28;20383;-77
2021/11/05 04:32:33;;;;;;;47.25;25.08;;;;;;;5.79;99.60;101569.31;4962152;28;20042;-77
2021/11/05 04:34:58;;;;;;;51.00;23.65;;;;;;;5.81;99.70;101579.50;4959983;28;20035;-77
2021/11/05 04:37:24;;;;;;;51.33;25.60;;;;;;;5.87;99.29;101576.50;4956819;28;20061;-77
2021/11/05 04:39:49;;;;;;;60.35;29.15;;;;;;;5.85;99.05;101576.59;4960608;28;20623;-83
2021/11/05 04:42:15;;;;;;;57.25;26.77;;;;;;;5.89;98.61;101579.78;4989092;28;20035;-76
2021/11/05 04:44:40;;;;;;;57.90;28.60;;;;;;;5.96;98.28;101580.25;4942921;28;20027;-76
2021/11/05 04:47:06;;;;;;;55.20;27.15;;;;;;;5.90;98.01;101578.06;4952470;28;20395;-76
2021/11/05 04:49:32;;;;;;;61.80;26.83;;;;;;;5.86;97.94;101577.47;4959200;28;20093;-77
2021/11/05 04:51:57;;;;;;;49.70;24.38;;;;;;;5.77;98.20;101588.38;4958101;28;20039;-76
2021/11/05 04:54:23;;;;;;;59.42;26.58;;;;;;;5.73;98.52;101599.81;4963464;28;20085;-77
2021/11/05 04:56:48;;;;;;;66.30;28.63;;;;;;;5.73;98.84;101605.78;4960609;28;20031;-77
2021/11/05 04:59:16;;;;;;;56.33;27.20;;;;;;;5.68;99.20;101605.25;4955286;28;20047;-76
2021/11/05 05:01:42;;;;;;;62.03;28.35;;;;;;;5.67;98.94;101608.78;4948601;28;20131;-76
2021/11/05 05:04:07;;;;;;;59.90;28.45;;;;;;;5.71;99.30;101617.09;4957505;28;20038;-76
2021/11/05 05:06:33;;;;;;;56.38;27.88;;;;;;;5.68;99.20;101612.16;4958711;28;20032;-76
2021/11/05 05:08:59;;;;;;;64.32;27.45;;;;;;;5.71;99.22;101623.09;4957429;28;20494;-76
2021/11/05 05:11:24;;;;;;;58.28;28.58;;;;;;;5.72;99.56;101624.72;4955521;28;20027;-77
2021/11/05 05:13:50;;;;;;;60.17;28.42;;;;;;;5.72;99.31;101631.63;4952954;28;20118;-76
2021/11/05 05:16:15;;;;;;;56.85;27.67;;;;;;;5.74;99.61;101637.47;4951965;28;20510;-76
2021/11/05 05:18:41;;;;;;;60.17;27.70;;;;;;;5.80;99.39;101639.63;4951746;28;20113;-76
2021/11/05 05:21:07;;;;;;;64.88;29.75;;;;;;;5.85;99.17;101640.97;4955020;28;20085;-76
2021/11/05 05:23:32;;;;;;;57.92;27.33;;;;;;;5.79;98.92;101650.88;4944483;28;20498;-76
2021/11/05 05:25:58;;;;;;;59.78;28.33;;;;;;;5.85;98.52;101647.88;4954983;28;20027;-76
2021/11/05 05:28:24;;;;;;;59.47;27.27;;;;;;;5.81;99.00;101651.59;4953651;28;20031;-76
2021/11/05 05:30:49;;;;;;;64.68;28.05;;;;;;;5.80;99.00;101648.19;4958052;28;20046;-76
2021/11/05 05:33:15;;;;;;;63.42;27.17;;;;;;;5.81;99.09;101659.31;4955907;28;20026;-76
2021/11/05 05:35:40;;;;;;;54.50;26.17;;;;;;;5.80;98.94;101657.66;4959058;28;20038;-76
2021/11/05 05:38:06;;;;;;;51.63;24.77;;;;;;;5.79;98.65;101659.41;4942124;28;20047;-76
2021/11/05 05:40:31;;;;;;;46.10;23.33;;;;;;;5.79;98.51;101664.56;4957981;28;20062;-77
2021/11/05 05:42:57;;;;;;;52.65;23.83;;;;;;;5.77;98.70;101657.88;4970370;28;20027;-76
2021/11/05 05:45:23;;;;;;;51.80;24.20;;;;;;;5.74;99.05;101665.78;4952086;28;20471;-76
2021/11/05 05:47:49;;;;;;;47.90;25.45;;;;;;;5.76;98.65;101671.66;4955959;28;20047;-76
2021/11/05 05:50:16;;;;;;;39.75;21.92;;;;;;;5.70;98.93;101667.75;4954987;28;20039;-76
2021/11/05 05:52:42;;;;;;;47.20;23.42;;;;;;;5.73;98.85;101671.88;4954372;28;20037;-77
2021/11/05 05:55:09;;;;;;;41.65;22.33;;;;;;;5.69;99.11;101670.41;4950765;28;20489;-76
2021/11/05 05:57:35;;;;;;;50.33;25.10;;;;;;;5.69;99.13;101678.13;4949699;28;20043;-77
2021/11/05 06:00:01;;;;;;;51.22;24.58;;;;;;;5.68;99.27;101674.75;4964925;28;20524;-76
2021/11/05 06:02:29;;;;;;;50.53;24.08;;;;;;;5.67;99.25;101680.84;4959119;28;20398;-76
2021/11/05 06:04:55;;;;;;;51.55;24.13;;;;;;;5.66;99.54;101692.84;4936143;28;20023;-76
2021/11/05 06:07:20;;;;;;;52.40;24.25;;;;;;;5.69;99.40;101689.28;4956420;28;20088;-77
2021/11/05 06:09:46;;;;;;;48.60;24.42;;;;;;;5.68;99.54;101700.47;4959618;28;20038;-76
2021/11/05 06:12:12;;;;;;;52.17;25.50;;;;;;;5.66;99.29;101699.75;4937290;28;20047;-77
2021/11/05 06:14:37;;;;;;;47.88;23.40;;;;;;;5.64;99.38;101697.28;4948529;28;20109;-76
2021/11/05 06:17:03;;;;;;;49.45;23.83;;;;;;;5.62;99.65;101701.72;4951162;28;20034;-76
2021/11/05 06:19:29;;;;;;;50.10;24.25;;;;;;;5.60;99.34;101706.13;4950109;28;20124;-76
2021/11/05 06:21:55;;;;;;;48.13;24.08;;;;;;;5.60;99.31;101710.47;4935583;28;20039;-76
2021/11/05 06:24:22;;;;;;;52.83;24.35;;;;;;;5.57;99.23;101716.63;4954707;28;20466;-76
2021/11/05 06:26:48;;;;;;;44.65;23.80;;;;;;;5.56;99.32;101725.28;4951790;28;20031;-76
2021/11/05 06:29:14;;;;;;;54.70;25.50;;;;;;;5.56;99.31;101729.63;4956782;28;20047;-76
2021/11/05 06:31:39;;;;;;;50.13;25.27;;;;;;;5.54;98.70;101729.72;4970581;28;20270;-77
2021/11/05 06:34:05;;;;;;;50.63;24.95;;;;;;;5.56;99.21;101727.84;4955255;28;20042;-76
2021/11/05 06:36:31;;;;;;;56.40;26.08;;;;;;;5.55;98.97;101730.53;4961332;28;20303;-77
2021/11/05 06:38:57;;;;;;;51.38;24.58;;;;;;;5.55;99.08;101744.19;4946270;28;20067;-76
2021/11/05 06:41:24;;;;;;;52.45;25.15;;;;;;;5.55;98.78;101757.06;4945781;28;20043;-76
2021/11/05 06:43:50;;;;;;;53.33;25.95;;;;;;;5.57;98.69;101757.78;4943829;28;20348;-77
2021/11/05 06:46:16;;;;;;;55.97;25.73;;;;;;;5.55;98.72;101762.22;4954737;28;20109;-76
2021/11/05 06:48:42;;;;;;;51.75;25.35;;;;;;;5.57;98.84;101770.66;4950381;28;20149;-76
2021/11/05 06:51:07;;;;;;;49.85;25.63;;;;;;;5.57;98.79;101774.97;4955597;28;20249;-76
2021/11/05 06:53:33;;;;;;;52.20;25.73;;;;;;;5.57;98.31;101780.94;4969078;28;20114;-76
2021/11/05 06:55:58;;;;;;;53.65;24.20;;;;;;;5.57;98.79;101788.66;4969671;22;20057;-76
2021/11/05 06:58:24;;;;;;;54.83;26.52;;;;;;;5.57;99.07;101791.25;4965493;28;20517;-76
2021/11/05 07:00:50;;;;;;;54.97;28.55;;;;;;;5.60;98.80;101796.19;5032320;28;20090;-76
2021/11/05 07:03:16;;;;;;;58.97;27.45;;;;;;;5.60;98.54;101791.06;4974296;28;20288;-76
2021/11/05 07:05:42;;;;;;;54.00;25.80;;;;;;;5.58;98.64;101805.75;4964402;28;20041;-76
2021/11/05 07:08:09;;;;;;;54.22;25.85;;;;;;;5.58;98.57;101802.38;4965177;28;20043;-76
2021/11/05 07:10:34;;;;;;;52.45;26.52;;;;;;;5.58;98.34;101810.91;4968118;28;20035;-76
2021/11/05 07:13:00;;;;;;;52.53;27.08;;;;;;;5.58;98.98;101805.75;4963951;28;20045;-76
2021/11/05 07:15:26;;;;;;;57.35;29.00;;;;;;;5.58;98.77;101813.50;4975073;28;20038;-76
2021/11/05 07:17:52;;;;;;;51.30;26.10;;;;;;;5.59;98.57;101817.69;4961467;28;20402;-76
2021/11/05 07:20:18;;;;;;;47.55;27.38;;;;;;;5.60;98.82;101819.34;4979815;28;20054;-77
2021/11/05 07:22:44;;;;;;;60.63;29.60;;;;;;;5.66;98.59;101825.84;4998904;28;20039;-76
2021/11/05 07:25:12;;;;;;;54.78;27.83;;;;;;;5.68;98.42;101830.91;4971009;28;20084;-76
2021/11/05 07:27:39;;;;;;;52.55;28.42;;;;;;;5.70;98.33;101836.78;4969507;28;20157;-76
2021/11/05 07:30:08;;;;;;;54.97;30.13;;;;;;;5.74;98.43;101833.91;4967941;28;20088;-76
2021/11/05 07:32:35;;;;;;;54.30;27.05;;;;;;;5.75;98.44;101839.91;5030281;28;20048;-76
2021/11/05 07:35:01;;;;;;;51.92;28.23;;;;;;;5.79;98.05;101846.47;4969953;28;20046;-76
2021/11/05 07:37:26;;;;;;;53.88;27.88;;;;;;;5.84;98.14;101847.84;4968517;28;20031;-76
2021/11/05 07:39:52;;;;;;;54.85;28.67;;;;;;;5.87;97.87;101849.38;5000456;28;20043;-76
2021/11/05 07:42:17;;;;;;;51.22;26.40;;;;;;;5.92;97.94;101852.50;5009141;28;20389;-76
2021/11/05 07:44:44;;;;;;;43.42;25.48;;;;;;;5.95;98.04;101862.63;4979786;28;20041;-76
2021/11/05 07:47:10;;;;;;;50.35;27.42;;;;;;;5.96;97.76;101864.25;4982599;28;20556;-76
2021/11/05 07:49:36;;;;;;;49.13;26.60;;;;;;;5.95;97.76;101864.31;4950632;28;20499;-76
2021/11/05 07:52:03;;;;;;;52.03;28.70;;;;;;;5.99;97.88;101873.53;4971793;28;20053;-75
2021/11/05 07:54:29;;;;;;;49.33;27.40;;;;;;;6.04;98.16;101867.16;4963704;28;20045;-76
2021/11/05 07:56:54;;;;;;;49.90;27.23;;;;;;;6.08;98.19;101870.34;4962467;28;20034;-76
2021/11/05 07:59:20;;;;;;;57.05;27.88;;;;;;;6.18;97.59;101873.19;4969543;28;20035;-76
2021/11/05 08:01:45;;;;;;;43.42;25.45;;;;;;;6.17;97.62;101872.31;4984067;28;20025;-76
2021/11/05 08:04:12;;;;;;;41.65;25.52;;;;;;;6.34;96.91;101880.69;4975263;28;20113;-77
2021/11/05 08:06:37;;;;;;;43.85;24.50;;;;;;;6.44;95.93;101879.16;4959573;28;20035;-77
2021/11/05 08:09:04;;;;;;;41.55;23.58;;;;;;;6.56;95.34;101885.25;4969637;28;20122;-76
2021/11/05 08:11:30;;;;;;;45.97;24.55;;;;;;;6.79;94.45;101887.06;4969092;28;20026;-76
2021/11/05 08:13:57;;;;;;;34.88;22.23;;;;;;;6.99;93.23;101896.03;4968292;28;20035;-76
2021/11/05 08:16:23;;;;;;;36.60;22.83;;;;;;;7.27;92.85;101894.13;4970499;28;20037;-76
2021/11/05 08:18:48;;;;;;;40.72;20.85;;;;;;;7.56;91.48;101902.38;4999355;28;20035;-76
2021/11/05 08:21:14;;;;;;;34.83;20.40;;;;;;;7.63;89.73;101901.94;4976417;28;20065;-76
2021/11/05 08:23:41;;;;;;;36.65;19.92;;;;;;;7.95;89.16;101897.03;4966895;28;20039;-76
2021/11/05 08:26:06;;;;;;;33.88;19.65;;;;;;;8.02;88.44;101900.81;4967040;28;20030;-76
2021/11/05 08:28:33;;;;;;;30.33;18.90;;;;;;;8.15;88.25;101901.53;4980704;28;20042;-76
2021/11/05 08:31:00;;;;;;;32.65;18.20;;;;;;;7.91;86.74;101904.19;4976466;28;20037;-77
2021/11/05 08:33:25;;;;;;;29.50;17.33;;;;;;;7.69;87.79;101906.69;4981321;28;20092;-77
2021/11/05 08:35:52;;;;;;;31.58;18.88;;;;;;;7.54;88.37;101924.06;5014915;28;20440;-76
2021/11/05 08:38:19;;;;;;;31.02;19.35;;;;;;;7.50;89.66;101923.47;5007873;28;20406;-77
2021/11/05 08:40:47;;;;;;;32.03;18.15;;;;;;;7.95;88.35;101923.69;4976388;28;20087;-77
2021/11/05 08:43:16;;;;;;;36.20;18.42;;;;;;;8.30;87.26;101925.44;4967259;28;20130;-76
2021/11/05 08:45:41;;;;;;;28.30;17.67;;;;;;;8.34;86.33;101926.03;4979876;28;20088;-77
2021/11/05 08:48:07;;;;;;;26.23;17.30;;;;;;;8.46;85.73;101930.34;4971894;28;20054;-77
2021/11/05 08:50:34;;;;;;;28.58;17.30;;;;;;;8.46;84.95;101929.53;4964350;28;20482;-77
2021/11/05 08:53:00;;;;;;;26.92;17.20;;;;;;;8.34;85.55;101929.47;4965869;28;20126;-76
2021/11/05 08:55:26;;;;;;;27.90;16.08;;;;;;;8.32;86.18;101939.06;4950552;28;20117;-76
2021/11/05 08:57:51;;;;;;;29.33;17.73;;;;;;;8.32;86.03;101943.41;4997381;28;20077;-76
2021/11/05 09:00:21;;;;;;;25.55;17.13;;;;;;;8.36;84.91;101940.50;4962972;28;20526;-77
2021/11/05 09:02:47;;;;;;;25.75;16.83;;;;;;;8.19;85.75;101944.34;4983866;28;20029;-78
2021/11/05 09:05:13;;;;;;;26.52;16.80;;;;;;;8.25;86.84;101948.22;4971880;28;20469;-77
2021/11/05 09:07:38;;;;;;;27.63;15.60;;;;;;;8.10;87.41;101957.94;4979432;28;20026;-76
2021/11/05 09:10:07;;;;;;;23.52;15.50;;;;;;;8.07;87.91;101958.13;4975364;28;20062;-77
2021/11/05 09:12:33;;;;;;;28.48;16.92;;;;;;;8.04;87.73;101965.28;4994578;28;20050;-77
2021/11/05 09:14:59;;;;;;;30.02;16.35;;;;;;;7.98;87.88;101969.13;4962352;28;20038;-77
2021/11/05 09:17:25;;;;;;;24.77;16.67;;;;;;;7.94;88.02;101965.13;4967389;28;20030;-76
2021/11/05 09:19:51;;;;;;;30.33;16.75;;;;;;;7.96;88.05;101968.41;4978183;28;20048;-77
2021/11/05 09:22:17;;;;;;;26.90;16.60;;;;;;;7.86;88.88;101970.03;4998539;28;20084;-77
2021/11/05 09:24:42;;;;;;;26.70;15.98;;;;;;;7.83;89.27;101965.88;4965177;28;20460;-77
2021/11/05 09:27:10;;;;;;;24.63;16.95;;;;;;;7.95;89.56;101964.19;4981100;28;20031;-76
2021/11/05 09:29:35;;;;;;;28.38;16.83;;;;;;;7.86;89.74;101977.78;4982636;28;20054;-76
2021/11/05 09:32:01;;;;;;;26.65;16.92;;;;;;;7.92;89.57;101980.72;4965243;28;20118;-78
2021/11/05 09:34:31;;;;;;;28.40;16.38;;;;;;;7.93;89.65;101979.81;5033059;28;20062;-77
2021/11/05 09:36:57;;;;;;;30.30;15.98;;;;;;;7.94;89.94;101981.44;4961382;28;20119;-77
2021/11/05 09:39:23;;;;;;;29.85;15.02;;;;;;;8.03;89.73;101992.88;4967268;28;20080;-76
2021/11/05 09:41:49;;;;;;;23.60;13.90;;;;;;;8.16;89.40;101991.06;4948661;28;20395;-76
2021/11/05 09:44:14;;;;;;;25.52;13.40;;;;;;;8.15;89.27;101988.56;4971948;28;20395;-76
2021/11/05 09:46:41;;;;;;;25.90;12.90;;;;;;;8.10;90.06;101999.25;4965176;28;20469;-76
2021/11/05 09:49:08;;;;;;;19.35;12.48;;;;;;;8.07;89.70;102003.81;4966647;28;20069;-76
2021/11/05 09:51:34;;;;;;;19.40;12.23;;;;;;;8.17;89.95;101997.88;4965843;28;20042;-77
2021/11/05 09:54:02;;;;;;;25.05;11.52;;;;;;;8.17;89.38;101997.88;4949682;28;20484;-76
2021/11/05 09:56:28;;;;;;;18.25;11.30;;;;;;;8.28;89.83;102006.59;5016383;28;20040;-76
2021/11/05 09:58:55;;;;;;;25.05;11.90;;;;;;;8.34;89.07;102013.91;4965791;28;20142;-77
2021/11/05 10:01:21;;;;;;;21.23;10.75;;;;;;;8.41;88.97;102014.28;4951531;28;20034;-77
2021/11/05 10:03:46;;;;;;;26.55;11.82;;;;;;;8.36;89.15;102017.19;4968247;28;20027;-77
2021/11/05 10:06:13;;;;;;;23.33;12.23;;;;;;;8.38;89.81;102021.34;4959296;28;20039;-77
2021/11/05 10:08:39;;;;;;;27.05;11.48;;;;;;;8.40;89.55;102023.81;4965720;28;20376;-76
2021/11/05 10:11:25;;;;;;;22.27;10.55;;;;;;;8.46;89.09;102022.59;4950734;28;20065;-78
2021/11/05 10:13:52;;;;;;;44.50;22.40;;;;;;;8.52;88.96;102025.53;4957174;28;20038;-77
2021/11/05 10:16:22;;;;;;;24.20;14.63;;;;;;;8.53;89.51;102034.09;4967282;28;20046;-77
2021/11/05 10:18:56;;;;;;;40.40;19.58;;;;;;;8.55;89.31;102022.72;4958772;28;20053;-77
2021/11/05 10:21:23;;;;;;;43.88;21.83;;;;;;;8.74;89.25;102026.53;4965324;28;20084;-77
2021/11/05 10:23:49;;;;;;;26.30;12.07;;;;;;;8.84;89.10;102040.44;4967819;28;20130;-76
2021/11/05 10:26:25;;;;;;;26.75;15.30;;;;;;;9.06;87.89;102037.06;4956835;28;20105;-76
2021/11/05 10:28:51;;;;;;;24.45;14.43;;;;;;;9.17;87.70;102038.81;4968189;28;20031;-77
2021/11/05 10:31:18;;;;;;;28.85;10.80;;;;;;;9.19;86.43;102046.47;4964126;28;20126;-77
2021/11/05 10:33:46;;;;;;;33.60;16.33;;;;;;;9.21;87.82;102040.25;4947212;28;20454;-77
2021/11/05 10:36:19;;;;;;;37.70;18.83;;;;;;;9.45;87.91;102049.66;4960621;28;21126;-77
2021/11/05 10:38:46;;;;;;;21.42;10.55;;;;;;;9.53;86.28;102037.78;4956000;28;20035;-77
2021/11/05 10:41:15;;;;;;;43.88;22.80;;;;;;;9.48;84.99;102049.44;4966905;28;20069;-77
2021/11/05 10:43:49;;;;;;;22.35;11.88;;;;;;;9.46;85.39;102048.72;4998871;28;20121;-76
2021/11/05 10:46:36;;;;;;;28.17;13.52;;;;;;;9.48;85.61;102052.03;4960714;28;20045;-77
2021/11/05 10:49:20;;;;;;;34.95;18.80;;;;;;;9.60;84.98;102045.06;4968925;28;20109;-77
2021/11/05 10:51:46;;;;;;;31.33;14.60;;;;;;;9.46;85.93;102052.13;4965751;28;20039;-76
2021/11/05 10:54:12;;;;;;;21.40;11.40;;;;;;;9.45;85.35;102052.25;4965334;28;20077;-76
2021/11/05 10:56:39;;;;;;;17.63;8.50;;;;;;;9.46;85.94;102054.72;4967222;28;20071;-80
2021/11/05 10:59:08;;;;;;;15.93;7.93;;;;;;;9.47;85.67;102055.53;4969439;28;20045;-77
2021/11/05 11:01:39;;;;;;;18.63;7.70;;;;;;;9.45;86.16;102053.06;4946617;28;20045;-77
2021/11/05 11:04:07;;;;;;;16.38;9.25;;;;;;;9.44;86.02;102059.19;4965141;28;20039;-76
2021/11/05 11:06:42;;;;;;;15.13;7.78;;;;;;;9.52;85.98;102056.00;4969540;28;20045;-77
2021/11/05 11:09:16;;;;;;;16.60;6.95;;;;;;;9.69;86.00;102055.53;4963667;28;20031;-76
2021/11/05 11:11:43;;;;;;;18.25;8.10;;;;;;;9.69;85.45;102065.06;4953987;28;20102;-77